sensor_id;sensor_type;location;lat;lon;timestamp;temperature;humidity
55219;DHT22;65463;43.864;20.136;2024-03-22T08:29:29;537.80;1356.80
55219;DHT22;65463;43.864;20.136;2024-03-22T08:31:55;512.70;1356.80
55219;DHT22;65463;43.864;20.136;2024-03-22T09:03:37;564.10;1254.40
55219;DHT22;65463;43.864;20.136;2024-03-22T09:50:10;640.00;1049.60
55219;DHT22;65463;43.864;20.136;2024-03-22T09:52:38;640.10;1049.60
55219;DHT22;65463;43.864;20.136;2024-03-22T09:55:07;640.00;1049.60
55219;DHT22;65463;43.864;20.136;2024-03-22T09:57:37;615.30;1049.60
55219;DHT22;65463;43.864;20.136;2024-03-22T10:00:06;615.00;1024.00
55219;DHT22;65463;43.864;20.136;2024-03-22T10:02:33;614.90;998.40
55219;DHT22;65463;43.864;20.136;2024-03-22T10:04:59;615.20;998.40
55219;DHT22;65463;43.864;20.136;2024-03-22T10:07:26;640.50;972.80
55219;DHT22;65463;43.864;20.136;2024-03-22T10:09:52;640.40;998.40
55219;DHT22;65463;43.864;20.136;2024-03-22T10:12:17;615.20;972.80
55219;DHT22;65463;43.864;20.136;2024-03-22T10:14:44;614.90;947.20
55219;DHT22;65463;43.864;20.136;2024-03-22T10:17:10;615.30;972.80
55219;DHT22;65463;43.864;20.136;2024-03-22T10:19:36;615.20;947.20
55219;DHT22;65463;43.864;20.136;2024-03-22T10:22:03;640.10;947.20
55219;DHT22;65463;43.864;20.136;2024-03-22T10:24:29;640.10;972.80
55219;DHT22;65463;43.864;20.136;2024-03-22T10:26:56;615.30;921.60
55219;DHT22;65463;43.864;20.136;2024-03-22T10:31:51;640.60;998.40
55219;DHT22;65463;43.864;20.136;2024-03-22T10:36:44;640.50;947.20
55219;DHT22;65463;43.864;20.136;2024-03-22T11:16:09;666.10;947.20
55219;DHT22;65463;43.864;20.136;2024-03-22T11:18:35;665.80;947.20
55219;DHT22;65463;43.864;20.136;2024-03-22T11:21:02;665.60;921.60
55219;DHT22;65463;43.864;20.136;2024-03-22T11:23:29;665.60;947.20
55219;DHT22;65463;43.864;20.136;2024-03-22T11:25:56;665.70;947.20
55219;DHT22;65463;43.864;20.136;2024-03-22T11:28:22;640.80;921.60
55219;DHT22;65463;43.864;20.136;2024-03-22T11:30:48;640.70;921.60
55219;DHT22;65463;43.864;20.136;2024-03-22T11:33:14;640.40;921.60
55219;DHT22;65463;43.864;20.136;2024-03-22T11:35:40;640.90;921.60
55219;DHT22;65463;43.864;20.136;2024-03-22T11:38:07;665.80;947.20
55219;DHT22;65463;43.864;20.136;2024-03-22T11:40:34;665.80;921.60
55219;DHT22;65463;43.864;20.136;2024-03-22T11:45:27;691.30;870.40
55219;DHT22;65463;43.864;20.136;2024-03-22T11:47:53;691.20;844.80
55219;DHT22;65463;43.864;20.136;2024-03-22T11:50:20;666.20;870.40
55219;DHT22;65463;43.864;20.136;2024-03-22T11:55:13;640.50;844.80
55219;DHT22;65463;43.864;20.136;2024-03-22T12:00:12;640.70;896.00
55219;DHT22;65463;43.864;20.136;2024-03-22T12:02:38;640.40;896.00
55219;DHT22;65463;43.864;20.136;2024-03-22T12:05:05;640.50;870.40
55219;DHT22;65463;43.864;20.136;2024-03-22T12:07:31;640.90;921.60
55219;DHT22;65463;43.864;20.136;2024-03-22T12:14:51;640.30;896.00
55219;DHT22;65463;43.864;20.136;2024-03-22T12:17:17;615.10;870.40
55219;DHT22;65463;43.864;20.136;2024-03-22T12:19:43;640.40;921.60
55219;DHT22;65463;43.864;20.136;2024-03-22T12:22:08;640.30;921.60
55219;DHT22;65463;43.864;20.136;2024-03-22T12:24:36;640.90;947.20
55219;DHT22;65463;43.864;20.136;2024-03-22T12:27:02;640.50;947.20
55219;DHT22;65463;43.864;20.136;2024-03-22T12:39:24;640.30;972.80
55219;DHT22;65463;43.864;20.136;2024-03-22T12:41:50;615.30;947.20
55219;DHT22;65463;43.864;20.136;2024-03-22T12:44:16;615.20;972.80
55219;DHT22;65463;43.864;20.136;2024-03-22T12:46:41;615.20;947.20
55219;DHT22;65463;43.864;20.136;2024-03-22T12:54:03;614.80;1024.00
55219;DHT22;65463;43.864;20.136;2024-03-22T14:27:24;538.40;1100.80
55219;DHT22;65463;43.864;20.136;2024-03-22T14:29:50;538.50;1100.80
55219;DHT22;65463;43.864;20.136;2024-03-22T14:32:17;563.30;1126.40
55219;DHT22;65463;43.864;20.136;2024-03-22T14:34:43;563.30;1126.40
55219;DHT22;65463;43.864;20.136;2024-03-22T14:37:09;563.60;1126.40
55219;DHT22;65463;43.864;20.136;2024-03-22T14:39:34;563.50;1100.80
55219;DHT22;65463;43.864;20.136;2024-03-22T14:42:00;563.70;1075.20
55219;DHT22;65463;43.864;20.136;2024-03-22T14:44:26;563.20;1100.80
55219;DHT22;65463;43.864;20.136;2024-03-22T14:46:52;563.20;1126.40
55219;DHT22;65463;43.864;20.136;2024-03-22T14:51:49;537.70;1075.20
55219;DHT22;65463;43.864;20.136;2024-03-22T14:54:16;537.90;1100.80
55219;DHT22;65463;43.864;20.136;2024-03-22T14:56:42;537.80;1152.00
55219;DHT22;65463;43.864;20.136;2024-03-22T14:59:08;537.90;1152.00
55219;DHT22;65463;43.864;20.136;2024-03-22T15:04:01;537.80;1126.40
